Time;durP1;ratioP1;P1;durP2;ratioP2;P2;SDS_P1;SDS_P2;PMS_P1;PMS_P2;Temp;Humidity;BMP_temperature;BMP_pressure;BME280_temperature;BME280_humidity;BME280_pressure;Samples;Min_cycle;Max_cycle;Signal;HPM_P1;HPM_P2
2022/04/10 00:00:54;;;;;;;3.97;1.57;;;14.90;84.00;;;14.94;39.12;101361.56;4787139;29;126802;-46
2022/04/10 00:03:22;;;;;;;3.27;2.17;;;15.00;84.40;;;14.96;39.17;101354.41;4793291;29;100041;-50
2022/04/10 00:05:49;;;;;;;3.63;1.50;;;15.00;83.50;;;15.01;38.94;101357.72;4789993;29;99337;-50
2022/04/10 00:08:15;;;;;;;6.33;2.57;;;15.10;84.10;;;15.03;39.09;101366.47;4792798;29;98384;-46
2022/04/10 00:10:41;;;;;;;3.97;2.07;;;15.10;82.00;;;15.05;39.04;101369.97;4788089;29;97540;-51
2022/04/10 00:13:08;;;;;;;4.03;1.53;;;15.10;83.80;;;15.08;38.94;101375.13;4791658;29;97499;-45
2022/04/10 00:15:34;;;;;;;5.10;2.20;;;15.20;83.80;;;15.08;38.89;101364.50;4791804;29;97845;-46
2022/04/10 00:18:00;;;;;;;4.27;2.20;;;15.10;83.80;;;15.06;39.00;101365.50;4801012;29;98625;-48
2022/04/10 00:20:26;;;;;;;4.17;2.33;;;15.10;83.70;;;15.02;39.18;101370.06;4791354;29;98442;-47
2022/04/10 00:22:52;;;;;;;6.33;1.73;;;15.00;84.20;;;15.03;39.26;101370.94;4786755;29;117557;-51
2022/04/10 00:25:19;;;;;;;6.03;2.37;;;15.00;84.70;;;15.02;39.15;101375.38;4790947;29;97726;-50
2022/04/10 00:27:46;;;;;;;4.90;1.83;;;14.90;84.70;;;15.02;39.28;101369.19;4787594;29;97904;-49
2022/04/10 00:30:15;;;;;;;4.33;2.07;;;15.00;84.50;;;14.98;39.29;101373.78;4793020;29;98239;-49
2022/04/10 00:32:41;;;;;;;6.43;2.70;;;14.80;84.00;;;14.91;39.53;101375.00;4787006;29;98808;-49
2022/04/10 00:35:09;;;;;;;6.40;2.37;;;14.70;82.40;;;14.86;39.27;101363.69;4786848;29;98505;-48
2022/04/10 00:37:36;;;;;;;4.10;1.60;;;14.60;83.30;;;14.86;39.53;101374.31;4805085;29;98452;-47
2022/04/10 00:40:04;;;;;;;3.70;1.37;;;14.60;84.20;;;14.78;39.80;101372.00;4785441;29;102885;-49
2022/04/10 00:42:32;;;;;;;2.00;1.50;;;14.50;84.20;;;14.67;39.63;101365.38;4790671;29;97021;-50
2022/04/10 00:44:58;;;;;;;1.93;1.00;;;14.20;83.50;;;14.53;40.27;101369.47;4785869;29;100328;-51
2022/04/10 00:47:23;;;;;;;3.00;2.00;;;14.00;85.40;;;14.33;40.37;101368.53;4790569;29;97459;-51
2022/04/10 00:49:49;;;;;;;2.37;1.30;;;13.60;86.20;;;14.16;41.13;101369.16;4787054;29;100260;-51
2022/04/10 00:52:16;;;;;;;4.30;1.73;;;13.30;88.00;;;14.02;41.08;101376.78;4790086;29;97571;-46
2022/04/10 00:54:42;;;;;;;1.93;1.10;;;13.10;88.10;;;13.86;41.70;101379.16;4796708;29;103867;-48
2022/04/10 00:57:11;;;;;;;3.57;1.40;;;12.80;90.10;;;13.75;41.89;101382.25;4788473;29;104097;-47
2022/04/10 00:59:37;;;;;;;4.63;1.83;;;12.70;89.90;;;13.66;42.17;101388.75;4787556;29;97365;-50
2022/04/10 01:02:04;;;;;;;4.07;1.77;;;12.60;90.00;;;13.60;42.05;101382.81;4788068;29;100852;-50
2022/04/10 01:04:30;;;;;;;3.67;1.43;;;12.60;90.40;;;13.53;42.43;101391.91;4788414;29;97752;-50
2022/04/10 01:06:57;;;;;;;3.00;1.60;;;12.50;90.40;;;13.48;42.63;101383.25;4779407;29;98786;-46
2022/04/10 01:09:24;;;;;;;4.97;2.03;;;12.40;91.00;;;13.37;42.78;101392.44;4767828;29;98594;-48
2022/04/10 01:11:53;;;;;;;2.57;1.90;;;12.30;90.90;;;13.35;42.70;101394.28;4785831;29;99300;-51
2022/04/10 01:14:20;;;;;;;2.77;1.10;;;12.30;90.60;;;13.31;42.83;101386.53;4788730;29;97964;-49
2022/04/10 01:16:48;;;;;;;5.33;2.30;;;12.30;90.60;;;13.28;42.86;101392.75;4787610;29;98618;-50
2022/04/10 01:19:17;;;;;;;3.27;1.27;;;12.20;90.50;;;13.27;43.30;101388.38;4789238;29;97665;-50
2022/04/10 01:21:46;;;;;;;2.53;1.23;;;12.20;91.10;;;13.25;43.31;101392.88;4784747;29;99269;-46
2022/04/10 01:24:13;;;;;;;3.10;1.37;;;12.20;91.20;;;13.19;43.30;101387.81;4790288;29;97292;-46
2022/04/10 01:26:41;;;;;;;3.90;1.97;;;12.20;90.80;;;13.10;43.32;101378.34;4786944;29;97503;-47
2022/04/10 01:29:09;;;;;;;1.77;1.33;;;12.00;91.40;;;13.07;43.57;101388.19;4791323;29;97862;-46
2022/04/10 01:31:43;;;;;;;4.07;1.40;;;12.00;91.40;;;13.02;43.65;101391.00;4788669;29;97130;-49
2022/04/10 01:34:13;;;;;;;5.93;2.43;;;11.90;91.10;;;12.97;43.37;101392.94;4786915;29;98893;-48
2022/04/10 01:36:40;;;;;;;3.60;1.97;;;11.80;91.00;;;12.94;43.97;101393.03;4785141;29;97143;-49
2022/04/10 01:39:09;;;;;;;2.80;2.00;;;11.80;91.40;;;12.87;43.76;101393.28;4789835;29;99062;-51
2022/04/10 01:41:35;;;;;;;2.20;1.43;;;11.70;91.40;;;12.82;44.21;101386.38;4788120;29;97518;-51
2022/04/10 01:44:05;;;;;;;1.73;1.40;;;11.70;91.90;;;12.78;44.36;101384.75;4785803;29;98175;-50
2022/04/10 01:46:33;;;;;;;2.60;1.57;;;11.60;92.30;;;12.80;44.37;101389.97;4791490;29;96853;-49
2022/04/10 01:48:59;;;;;;;1.57;1.00;;;11.70;91.90;;;12.77;44.50;101387.44;4787521;29;100243;-47
2022/04/10 01:51:25;;;;;;;3.83;1.60;;;11.60;92.70;;;12.75;44.48;101390.16;4789840;29;96915;-51
2022/04/10 01:53:53;;;;;;;2.77;1.50;;;11.60;91.60;;;12.75;44.37;101387.50;4787010;29;97480;-50
2022/04/10 01:56:20;;;;;;;2.30;1.40;;;11.60;91.90;;;12.74;44.48;101384.91;4784352;29;97095;-49
2022/04/10 01:59:00;;;;;;;2.80;1.40;;;11.60;91.70;;;12.74;44.40;101391.06;4777212;29;98353;-46
2022/04/10 02:01:32;;;;;;;6.00;2.60;;;11.60;92.00;;;12.71;44.30;101391.13;4745833;29;97580;-48
2022/04/10 02:03:58;;;;;;;1.90;1.07;;;11.50;91.60;;;12.70;44.78;101384.13;4762112;29;100052;-45
2022/04/10 02:06:23;;;;;;;1.60;1.17;;;11.50;92.60;;;12.72;44.74;101381.41;4789288;29;109639;-49
2022/04/10 02:08:49;;;;;;;2.30;1.20;;;11.60;92.40;;;12.78;44.74;101381.22;4783527;29;112254;-49
2022/04/10 02:11:18;;;;;;;6.77;1.77;;;11.70;92.70;;;12.75;44.60;101382.22;4790707;29;98454;-45
2022/04/10 02:13:45;;;;;;;4.47;1.80;;;11.70;91.70;;;12.76;44.21;101383.06;4786183;29;99363;-48
2022/04/10 02:16:15;;;;;;;3.13;1.43;;;11.60;91.70;;;12.76;44.67;101394.53;4789232;29;97321;-50
2022/04/10 02:18:41;;;;;;;2.10;1.43;;;11.60;92.20;;;12.77;44.68;101390.09;4785453;29;97520;-49
2022/04/10 02:21:08;;;;;;;1.83;1.30;;;11.60;92.60;;;12.75;44.72;101381.34;4789263;29;98138;-46
2022/04/10 02:23:34;;;;;;;4.00;1.70;;;11.60;92.40;;;12.81;44.67;101375.84;4786229;29;97349;-50
2022/04/10 02:26:00;;;;;;;2.07;1.50;;;11.70;92.30;;;12.84;44.73;101382.78;4782667;29;98324;-46
2022/04/10 02:28:26;;;;;;;8.67;2.23;;;11.70;92.60;;;12.78;44.42;101392.69;4788685;29;96806;-49
2022/04/10 02:30:52;;;;;;;2.53;1.53;;;11.70;91.40;;;12.78;44.73;101392.69;4801028;29;96995;-48
2022/04/10 02:33:18;;;;;;;2.57;1.47;;;11.60;92.10;;;12.80;44.76;101395.28;4803685;29;100404;-48
2022/04/10 02:35:44;;;;;;;1.37;1.10;;;11.60;92.20;;;12.82;44.72;101388.16;4806802;29;97449;-49
2022/04/10 02:38:10;;;;;;;3.30;1.50;;;11.70;92.50;;;12.79;44.75;101397.06;4801831;29;98154;-53
2022/04/10 02:40:36;;;;;;;1.97;1.17;;;11.60;92.30;;;12.77;44.84;101398.91;4806210;29;117242;-47
2022/04/10 02:43:02;;;;;;;1.60;0.90;;;11.60;91.90;;;12.79;44.74;101399.72;4804689;29;96760;-47
2022/04/10 02:45:28;;;;;;;2.30;1.53;;;11.60;92.40;;;12.84;44.81;101403.97;4807098;29;97441;-50
2022/04/10 02:47:54;;;;;;;2.13;1.33;;;11.70;92.10;;;12.81;44.51;101400.53;4807387;29;97259;-47
2022/04/10 02:50:20;;;;;;;2.80;1.50;;;11.70;91.70;;;12.82;44.67;101404.91;4804637;29;113451;-45
2022/04/10 02:52:46;;;;;;;1.20;1.10;;;11.70;92.10;;;12.81;44.60;101403.16;4817211;29;97076;-47
2022/04/10 02:55:12;;;;;;;2.43;1.30;;;11.70;92.10;;;12.80;44.60;101406.72;4801010;29;97038;-47
2022/04/10 02:57:38;;;;;;;1.90;1.17;;;11.70;92.10;;;12.76;44.65;101404.25;4814664;29;120404;-48
2022/04/10 03:00:05;;;;;;;5.07;2.23;;;11.60;92.30;;;12.75;44.68;101413.97;4802051;29;113348;-47
2022/04/10 03:02:31;;;;;;;2.30;1.43;;;11.60;92.00;;;12.69;44.75;101414.16;4807714;29;96997;-49
2022/04/10 03:04:57;;;;;;;1.97;1.20;;;11.50;92.30;;;12.65;44.96;101416.97;4807569;29;97106;-48
2022/04/10 03:07:23;;;;;;;5.00;2.57;;;11.40;92.50;;;12.60;44.43;101425.06;4808122;29;96970;-46
2022/04/10 03:09:48;;;;;;;3.53;1.90;;;11.40;91.90;;;12.59;44.96;101422.47;4811057;29;122519;-48
2022/04/10 03:12:14;;;;;;;4.63;1.57;;;11.30;92.60;;;12.55;45.15;101426.97;4807256;29;120497;-48
2022/04/10 03:14:40;;;;;;;7.23;2.57;;;11.30;92.70;;;12.55;44.65;101426.97;4822571;29;108654;-46
2022/04/10 03:17:06;;;;;;;2.20;1.47;;;11.30;92.60;;;12.57;45.12;101427.78;4802523;29;112111;-49
2022/04/10 03:19:31;;;;;;;1.47;1.10;;;11.30;93.10;;;12.58;45.14;101431.28;4814518;29;97495;-48
2022/04/10 03:21:57;;;;;;;2.33;1.47;;;11.40;93.20;;;12.58;44.93;101426.84;4810448;29;109639;-47
2022/04/10 03:24:23;;;;;;;1.73;1.20;;;11.40;92.40;;;12.57;45.17;101430.44;4805449;29;114089;-47
2022/04/10 03:26:49;;;;;;;4.07;2.93;;;11.40;92.60;;;12.52;45.08;101432.34;4814491;29;117173;-45
2022/04/10 03:29:15;;;;;;;6.03;2.83;;;11.40;92.90;;;12.51;45.21;101436.78;4803977;29;97247;-46
2022/04/10 03:31:41;;;;;;;2.00;1.20;;;11.30;92.70;;;12.53;45.23;101431.44;4811480;29;103057;-47
2022/04/10 03:34:06;;;;;;;4.23;1.87;;;11.30;92.60;;;12.46;45.08;101432.56;4805146;29;97465;-47
2022/04/10 03:36:32;;;;;;;2.30;1.47;;;11.30;93.10;;;12.45;45.42;101430.84;4810801;29;120973;-48
2022/04/10 03:38:58;;;;;;;2.57;1.20;;;11.20;93.50;;;12.52;45.15;101437.66;4807213;29;125133;-45
2022/04/10 03:41:23;;;;;;;3.17;1.67;;;11.30;93.90;;;12.57;44.99;101434.84;4806379;29;120419;-46
2022/04/10 03:43:49;;;;;;;5.27;2.67;;;11.40;93.30;;;12.61;45.08;101437.38;4808959;29;121731;-49
2022/04/10 03:46:15;;;;;;;5.03;2.07;;;11.50;92.90;;;12.66;44.90;101440.72;4806473;29;125576;-46
2022/04/10 03:48:41;;;;;;;3.67;1.80;;;11.60;92.80;;;12.66;45.03;101435.44;4803743;29;98045;-47
2022/04/10 03:51:06;;;;;;;1.63;1.10;;;11.60;93.10;;;12.73;44.84;101437.00;4803580;29;97213;-47
2022/04/10 03:53:35;;;;;;;4.80;2.77;;;11.70;93.10;;;12.74;44.86;101444.00;4810144;29;123229;-47
2022/04/10 03:56:02;;;;;;;2.50;1.30;;;11.70;92.30;;;12.74;45.14;101449.31;4811242;29;107221;-52
2022/04/10 03:58:27;;;;;;;2.17;1.20;;;11.70;93.40;;;12.86;44.74;101449.81;4813402;29;102295;-48
2022/04/10 04:00:53;;;;;;;4.07;1.97;;;11.90;93.50;;;12.91;44.69;101454.06;4810345;29;101588;-47
2022/04/10 04:03:19;;;;;;;2.37;1.40;;;12.00;92.70;;;13.02;44.58;101456.34;4803020;29;121966;-48
2022/04/10 04:05:45;;;;;;;2.57;1.83;;;12.10;93.10;;;13.11;44.30;101459.53;4807535;29;97014;-49
2022/04/10 04:08:10;;;;;;;2.60;1.50;;;12.30;91.90;;;13.15;44.09;101465.59;4804617;29;96838;-50
2022/04/10 04:10:36;;;;;;;2.90;2.20;;;12.30;92.20;;;13.19;44.00;101464.63;4809481;29;97024;-48
2022/04/10 04:13:03;;;;;;;2.20;1.70;;;12.30;91.90;;;13.21;43.97;101470.75;4806904;29;96970;-45
2022/04/10 04:15:28;;;;;;;2.40;1.43;;;12.30;92.00;;;13.26;43.91;101474.09;4809336;29;97481;-45
2022/04/10 04:17:54;;;;;;;2.83;2.03;;;12.40;92.90;;;13.32;43.67;101473.91;4809223;29;116860;-47
2022/04/10 04:20:20;;;;;;;2.87;1.80;;;12.50;91.40;;;13.30;43.76;101481.00;4806439;29;104087;-45
2022/04/10 04:22:48;;;;;;;5.47;2.20;;;12.40;91.30;;;13.22;44.01;101477.78;4812613;29;96963;-47
2022/04/10 04:25:14;;;;;;;7.03;3.33;;;12.20;92.00;;;13.17;43.68;101482.34;4806112;29;98758;-48
2022/04/10 04:27:40;;;;;;;3.87;2.00;;;12.10;91.70;;;13.08;44.10;101479.97;4814734;29;114501;-48
2022/04/10 04:30:08;;;;;;;3.27;2.23;;;12.00;92.20;;;13.04;44.14;101481.00;4802154;29;96709;-46
2022/04/10 04:32:34;;;;;;;3.27;1.53;;;11.90;92.50;;;13.02;44.47;101485.50;4814084;29;96775;-47
2022/04/10 04:35:00;;;;;;;2.40;1.97;;;11.90;93.30;;;12.97;44.43;101492.69;4812041;29;125681;-47
2022/04/10 04:37:25;;;;;;;2.60;1.57;;;11.90;92.10;;;12.94;44.50;101492.81;4811685;29;102886;-46
2022/04/10 04:39:51;;;;;;;2.50;1.90;;;11.80;92.60;;;12.97;44.29;101503.28;4797120;29;96811;-45
2022/04/10 04:42:17;;;;;;;3.27;2.20;;;11.90;91.80;;;12.94;44.40;101506.03;4804865;29;114966;-46
2022/04/10 04:44:43;;;;;;;3.47;1.87;;;11.80;91.90;;;12.90;44.50;101502.63;4808464;29;128258;-49
2022/04/10 04:47:08;;;;;;;1.97;1.40;;;11.70;92.40;;;12.91;44.68;101503.50;4805208;29;98536;-50
2022/04/10 04:49:34;;;;;;;2.17;1.80;;;11.80;92.70;;;12.91;44.43;101498.19;4803359;29;112844;-48
2022/04/10 04:52:00;;;;;;;3.97;1.83;;;11.80;93.20;;;12.97;44.49;101503.28;4802249;29;112868;-53
2022/04/10 04:54:26;;;;;;;1.90;1.70;;;12.00;92.30;;;13.02;44.36;101506.69;4797599;29;101882;-48
2022/04/10 04:56:51;;;;;;;3.03;1.77;;;12.10;92.70;;;13.11;44.36;101507.22;4812658;29;118206;-53
2022/04/10 04:59:17;;;;;;;4.70;1.70;;;12.30;92.10;;;13.16;44.24;101515.00;4800144;29;100428;-50
2022/04/10 05:01:44;;;;;;;4.60;2.70;;;12.40;91.40;;;13.16;44.21;101512.38;4809950;29;100793;-51
2022/04/10 05:04:11;;;;;;;2.10;1.87;;;12.30;91.10;;;13.15;44.20;101518.56;4809973;29;97228;-47
2022/04/10 05:06:38;;;;;;;3.23;1.77;;;12.20;92.60;;;13.20;44.02;101519.34;4811483;29;97687;-48
2022/04/10 05:09:05;;;;;;;5.00;2.83;;;12.30;92.10;;;13.23;43.91;101521.88;4796074;29;96920;-48
2022/04/10 05:11:31;;;;;;;2.50;1.73;;;12.40;91.20;;;13.23;44.21;101518.38;4809462;29;97386;-49
2022/04/10 05:13:57;;;;;;;2.17;1.43;;;12.30;92.30;;;13.35;43.73;101526.78;4807548;29;97643;-47
2022/04/10 05:16:22;;;;;;;2.87;1.67;;;12.60;92.00;;;13.42;43.68;101530.09;4806286;29;96888;-46
2022/04/10 05:18:49;;;;;;;2.40;1.60;;;12.70;92.50;;;13.49;43.60;101536.94;4804793;29;98040;-50
2022/04/10 05:21:15;;;;;;;2.73;1.63;;;12.80;91.50;;;13.54;43.54;101531.47;4809295;29;96802;-48
2022/04/10 05:23:41;;;;;;;2.70;1.70;;;12.80;91.60;;;13.60;43.27;101528.63;4795756;29;120575;-49
2022/04/10 05:26:07;;;;;;;1.70;1.47;;;12.90;92.40;;;13.67;43.15;101538.06;4807712;29;96864;-46
2022/04/10 05:28:34;;;;;;;2.97;1.87;;;13.10;91.90;;;13.76;43.02;101537.78;4803218;29;96795;-50
2022/04/10 05:31:03;;;;;;;2.63;1.90;;;13.20;90.40;;;13.80;42.86;101531.44;4807054;29;97333;-52
2022/04/10 05:33:30;;;;;;;3.23;1.70;;;13.20;91.40;;;13.85;42.70;101532.13;4805153;29;102427;-45
2022/04/10 05:35:55;;;;;;;2.73;1.60;;;13.30;91.30;;;13.88;42.64;101539.97;4812508;29;97227;-46
2022/04/10 05:38:24;;;;;;;2.40;1.83;;;13.30;90.90;;;13.83;42.72;101536.63;4813179;29;96957;-46
2022/04/10 05:40:54;;;;;;;3.80;1.73;;;13.20;90.00;;;13.74;42.93;101542.22;4807418;29;97790;-46
2022/04/10 05:43:21;;;;;;;2.67;1.70;;;12.90;90.90;;;13.66;43.00;101549.59;4813128;29;97728;-49
2022/04/10 05:45:49;;;;;;;1.67;1.47;;;12.70;91.50;;;13.66;43.07;101541.66;4808201;29;97249;-47
2022/04/10 05:48:15;;;;;;;3.17;1.97;;;12.80;91.80;;;13.63;43.30;101533.81;4810163;29;97521;-48
2022/04/10 05:50:41;;;;;;;3.20;2.30;;;12.70;92.30;;;13.54;43.20;101547.38;4813105;29;98303;-46
2022/04/10 05:53:07;;;;;;;3.80;2.63;;;12.60;90.90;;;13.45;43.65;101547.66;4809604;29;99516;-46
2022/04/10 05:55:33;;;;;;;3.93;2.30;;;12.40;92.20;;;13.30;44.02;101549.91;4808811;29;103370;-46
2022/04/10 05:57:59;;;;;;;1.83;1.67;;;12.20;92.00;;;13.35;43.82;101553.28;4808648;29;97290;-48
2022/04/10 06:00:39;;;;;;;2.83;1.70;;;12.30;92.60;;;13.36;43.96;101557.66;4805640;29;97809;-46
2022/04/10 06:03:05;;;;;;;2.27;1.53;;;12.30;92.00;;;13.33;44.05;101560.44;4770337;29;99871;-52
2022/04/10 06:05:31;;;;;;;2.53;1.80;;;12.30;92.20;;;13.30;44.14;101559.63;4801773;29;116943;-48
2022/04/10 06:07:57;;;;;;;3.20;1.77;;;12.30;93.20;;;13.33;43.97;101563.06;4819189;29;97412;-46
2022/04/10 06:10:23;;;;;;;2.97;1.80;;;12.40;92.40;;;13.38;44.01;101562.91;4806312;29;97421;-53
2022/04/10 06:12:49;;;;;;;2.40;1.80;;;12.50;92.20;;;13.44;43.89;101567.13;4811089;29;105717;-51
2022/04/10 06:15:20;;;;;;;2.13;1.27;;;12.60;92.10;;;13.51;43.69;101571.31;4801186;29;96944;-49
2022/04/10 06:17:46;;;;;;;2.87;1.80;;;12.70;92.40;;;13.49;43.74;101573.16;4809358;29;96793;-49
2022/04/10 06:20:13;;;;;;;3.67;2.20;;;12.70;92.00;;;13.57;43.59;101579.06;4809550;29;96967;-50
2022/04/10 06:22:38;;;;;;;2.97;1.80;;;12.80;92.30;;;13.64;43.54;101576.16;4811012;29;97557;-46
2022/04/10 06:25:06;;;;;;;2.60;1.93;;;12.90;91.70;;;13.72;43.11;101578.53;4804484;29;110522;-49
2022/04/10 06:27:32;;;;;;;1.47;1.27;;;13.10;92.30;;;13.82;43.04;101579.97;4809516;29;96914;-49
2022/04/10 06:29:57;;;;;;;2.00;1.50;;;13.30;91.70;;;13.90;42.71;101583.25;4811331;29;113345;-48
2022/04/10 06:32:23;;;;;;;2.90;1.43;;;13.40;91.50;;;14.04;42.32;101584.53;4808829;29;114777;-49
2022/04/10 06:34:49;;;;;;;4.13;2.17;;;13.60;91.50;;;14.10;42.30;101586.97;4811957;29;109858;-48
2022/04/10 06:37:14;;;;;;;2.57;1.77;;;13.70;89.80;;;14.08;42.48;101586.16;4808168;29;97068;-46
2022/04/10 06:39:40;;;;;;;2.33;1.57;;;13.60;90.80;;;14.06;42.56;101591.53;4809120;29;98108;-51
2022/04/10 06:42:08;;;;;;;1.77;1.47;;;13.40;91.40;;;14.05;42.38;101586.28;4805757;29;97599;-48
2022/04/10 06:44:33;;;;;;;3.83;1.93;;;13.40;91.10;;;14.02;42.41;101586.34;4811657;29;96899;-46
2022/04/10 06:46:59;;;;;;;2.83;1.63;;;13.40;90.90;;;13.98;42.61;101586.47;4810945;29;112020;-46
2022/04/10 06:49:25;;;;;;;3.73;2.40;;;13.30;91.10;;;14.00;42.44;101589.94;4815020;29;115527;-48
2022/04/10 06:51:50;;;;;;;4.23;1.80;;;13.30;91.10;;;14.02;42.60;101602.28;4811360;29;97241;-48
2022/04/10 06:54:16;;;;;;;3.07;1.63;;;13.30;91.50;;;14.06;42.48;101593.31;4809071;29;99813;-46
2022/04/10 06:56:42;;;;;;;3.70;1.63;;;13.40;91.20;;;14.07;42.47;101593.25;4813558;29;96660;-53
2022/04/10 06:59:08;;;;;;;3.63;1.83;;;13.50;90.60;;;14.05;42.42;101602.19;4809217;29;97225;-51
2022/04/10 07:01:34;;;;;;;5.90;3.20;;;13.40;91.50;;;13.93;42.59;101599.03;4814956;29;97110;-47
2022/04/10 07:04:01;;;;;;;5.93;3.53;;;13.20;91.20;;;13.93;42.53;101604.34;4813656;29;121219;-51
2022/04/10 07:06:26;;;;;;;7.70;6.00;;;13.10;91.40;;;13.80;41.58;101600.38;4809030;29;97949;-53
2022/04/10 07:08:52;;;;;;;10.10;5.90;;;13.00;90.70;;;13.53;41.69;101599.50;4816669;29;105435;-47
2022/04/10 07:11:18;;;;;;;12.27;6.50;;;12.60;91.10;;;13.30;42.89;101605.53;4813768;29;113652;-51
2022/04/10 07:13:44;;;;;;;8.57;4.97;;;12.30;91.70;;;13.15;43.74;101597.19;4820207;29;116135;-48
2022/04/10 07:16:09;;;;;;;9.03;6.40;;;12.20;92.50;;;12.92;43.25;101600.56;4811793;29;96704;-47
2022/04/10 07:18:35;;;;;;;12.23;7.03;;;12.00;92.40;;;12.73;44.52;101603.78;4810671;29;97816;-46
2022/04/10 07:21:01;;;;;;;3.80;2.50;;;11.80;92.90;;;12.72;45.39;101603.78;4808240;29;113553;-52
2022/04/10 07:23:42;;;;;;;8.10;5.23;;;11.80;93.60;;;12.66;44.00;101602.19;4808388;29;118381;-47
2022/04/10 07:26:13;;;;;;;9.20;5.83;;;11.80;93.70;;;12.70;45.05;101611.78;4808532;29;97601;-46
2022/04/10 07:28:40;;;;;;;9.37;5.60;;;11.90;93.10;;;12.56;44.89;101608.66;4813126;29;97000;-48
2022/04/10 07:31:07;;;;;;;8.30;6.00;;;11.90;92.80;;;12.63;43.21;101620.81;4808158;29;98850;-49
2022/04/10 07:33:33;;;;;;;9.00;5.30;;;12.10;92.10;;;12.41;43.61;101611.75;4811485;29;97020;-49
2022/04/10 07:35:59;;;;;;;9.47;5.67;;;12.00;92.00;;;12.52;45.42;101607.88;4812933;29;97248;-48
2022/04/10 07:38:24;;;;;;;9.13;6.00;;;12.00;92.80;;;12.60;43.09;101605.03;4809205;29;97623;-46
2022/04/10 07:40:50;;;;;;;8.63;5.13;;;12.30;91.80;;;12.78;44.56;101615.09;4813784;29;121637;-47
2022/04/10 07:43:16;;;;;;;13.93;10.00;;;12.40;92.60;;;12.66;43.46;101620.72;4808693;29;123582;-46
2022/04/10 07:48:26;;;;;;;7.73;4.60;;;12.30;92.20;;;12.95;44.80;101629.59;4809635;29;97034;-49
2022/04/10 07:50:52;;;;;;;3.77;3.27;;;12.50;92.90;;;13.19;44.52;101625.38;4811950;29;97209;-52
2022/04/10 07:53:17;;;;;;;7.43;4.63;;;12.90;92.50;;;13.00;42.98;101630.31;4806719;29;121307;-52
2022/04/10 07:55:43;;;;;;;5.57;3.73;;;12.90;91.30;;;13.16;43.72;101636.88;4810772;29;123612;-49
2022/04/10 07:58:09;;;;;;;8.37;4.80;;;12.90;92.10;;;13.16;42.60;101631.56;4813757;29;97330;-48
2022/04/10 08:00:35;;;;;;;5.57;3.97;;;13.00;90.30;;;12.95;44.49;101634.88;4811169;29;118297;-49
2022/04/10 08:03:02;;;;;;;7.37;4.90;;;12.60;91.90;;;12.82;43.07;101640.53;4809304;29;97719;-50
2022/04/10 08:05:28;;;;;;;9.80;5.73;;;12.50;91.30;;;13.10;44.41;101645.03;4806818;29;105989;-48
2022/04/10 08:07:54;;;;;;;8.77;5.53;;;12.70;91.70;;;13.19;42.28;101652.72;4810092;29;97108;-47
2022/04/10 08:10:21;;;;;;;6.63;4.63;;;12.90;90.90;;;13.38;43.87;101653.88;4811238;29;97322;-47
2022/04/10 08:12:47;;;;;;;8.70;6.30;;;13.20;91.60;;;13.40;41.29;101649.41;4808894;29;97680;-51
2022/04/10 08:15:13;;;;;;;14.67;8.33;;;13.40;89.70;;;13.65;42.94;101651.28;4808319;29;96757;-47
2022/04/10 08:17:40;;;;;;;7.17;5.80;;;13.50;90.90;;;13.73;42.05;101651.88;4810116;29;97304;-50
2022/04/10 08:20:08;;;;;;;9.37;5.70;;;13.70;88.90;;;13.88;42.33;101656.66;4807563;29;97768;-46
2022/04/10 08:22:36;;;;;;;6.53;5.07;;;13.90;90.30;;;13.97;42.30;101659.00;4809596;29;97586;-46
2022/04/10 08:25:06;;;;;;;6.20;4.87;;;13.90;89.90;;;14.02;42.21;101660.63;4803765;29;97486;-53
2022/04/10 08:27:32;;;;;;;9.60;5.47;;;13.90;89.30;;;13.95;42.32;101660.84;4810863;29;96894;-46
2022/04/10 08:29:58;;;;;;;4.60;2.33;;;13.80;89.60;;;14.14;42.15;101662.88;4812098;29;96606;-46
2022/04/10 08:32:24;;;;;;;8.67;4.70;;;14.00;90.50;;;14.03;39.70;101662.38;4804499;29;111695;-46
2022/04/10 08:34:50;;;;;;;7.43;5.13;;;13.90;87.00;;;14.03;41.17;101667.69;4808303;29;115191;-48
2022/04/10 08:37:16;;;;;;;5.93;3.00;;;13.80;88.30;;;13.64;39.14;101665.44;4809487;29;97146;-46
2022/04/10 08:39:42;;;;;;;5.90;2.87;;;13.40;85.70;;;13.61;41.09;101673.50;4809280;29;97855;-46
2022/04/10 08:42:11;;;;;;;7.73;2.73;;;13.30;88.10;;;13.62;39.02;101668.16;4804901;29;96737;-49
2022/04/10 08:44:37;;;;;;;6.17;2.80;;;13.50;86.40;;;13.69;41.96;101664.38;4807969;29;97370;-50
2022/04/10 08:47:03;;;;;;;5.43;2.33;;;13.50;88.50;;;13.60;42.27;101667.34;4804690;29;96999;-49
2022/04/10 08:49:30;;;;;;;5.77;1.83;;;13.40;89.60;;;13.52;39.90;101666.69;4810904;29;97242;-48
2022/04/10 08:51:58;;;;;;;8.13;3.03;;;13.40;84.90;;;13.35;41.88;101679.63;4812712;29;97845;-47
2022/04/10 08:54:26;;;;;;;10.87;2.73;;;13.10;87.40;;;13.42;42.80;101674.97;4795502;29;96722;-46
2022/04/10 08:56:52;;;;;;;8.83;3.50;;;13.10;90.40;;;13.44;39.77;101681.97;4786026;29;99463;-49
2022/04/10 08:59:19;;;;;;;5.20;3.30;;;13.40;86.20;;;13.33;40.06;101677.03;4792819;29;98519;-51
2022/04/10 09:01:45;;;;;;;7.43;2.90;;;13.30;86.10;;;13.37;39.95;101676.00;4789532;29;97477;-50
2022/04/10 09:04:13;;;;;;;6.67;3.17;;;13.40;85.80;;;13.37;42.34;101683.94;4787153;29;99001;-52
2022/04/10 09:06:43;;;;;;;8.60;3.70;;;13.30;88.90;;;13.16;39.83;101678.41;4785465;29;98115;-52
2022/04/10 09:09:16;;;;;;;8.13;3.80;;;13.10;85.20;;;12.90;41.65;101677.41;4786278;29;99136;-49
2022/04/10 09:11:43;;;;;;;8.10;4.20;;;12.90;87.20;;;12.89;41.46;101674.81;4791817;29;98601;-48
2022/04/10 09:14:09;;;;;;;7.27;3.10;;;12.80;88.10;;;12.86;42.36;101677.53;4790454;29;123692;-49
2022/04/10 09:16:35;;;;;;;8.93;5.27;;;12.70;89.70;;;12.88;42.84;101683.66;4792106;29;97493;-51
2022/04/10 09:19:07;;;;;;;9.77;4.70;;;12.80;88.90;;;13.04;42.54;101685.81;4790384;29;98136;-55
2022/04/10 09:21:39;;;;;;;7.97;2.80;;;12.90;88.60;;;13.05;40.56;101686.69;4786114;29;102906;-47
2022/04/10 09:24:41;;;;;;;6.83;4.00;;;13.00;87.30;;;13.21;41.86;101688.00;4770441;29;99798;-50
2022/04/10 09:27:07;;;;;;;4.77;2.87;;;13.10;87.60;;;13.24;42.13;101677.28;4744270;29;98653;-50
2022/04/10 09:29:50;;;;;;;7.73;3.70;;;13.10;89.30;;;13.07;43.06;101676.91;4792974;29;123089;-49
2022/04/10 09:32:16;;;;;;;5.50;2.73;;;12.90;89.60;;;13.10;39.80;101690.06;4789630;29;97215;-49
2022/04/10 09:34:41;;;;;;;5.10;2.10;;;12.90;86.40;;;12.97;38.44;101673.66;4790756;29;98344;-49
2022/04/10 09:37:07;;;;;;;8.77;2.80;;;12.80;84.00;;;12.92;37.94;101680.00;4790759;29;113080;-49
2022/04/10 09:39:36;;;;;;;6.87;2.60;;;12.80;82.50;;;12.88;40.43;101673.94;4791392;29;98462;-47
2022/04/10 09:42:12;;;;;;;4.67;2.60;;;12.70;85.30;;;12.90;37.82;101668.59;4790597;29;98413;-56
2022/04/10 09:44:39;;;;;;;5.80;2.53;;;12.80;83.90;;;12.70;42.06;101675.31;4791644;29;99130;-48
2022/04/10 09:47:08;;;;;;;6.20;2.23;;;12.50;85.50;;;12.84;42.95;101668.75;4790673;29;99941;-47
2022/04/10 09:49:36;;;;;;;6.37;2.23;;;12.70;88.90;;;12.82;39.48;101674.97;4792096;29;98507;-50
2022/04/10 09:52:11;;;;;;;3.60;2.10;;;12.80;84.50;;;12.68;38.95;101682.44;4791092;29;98448;-53
2022/04/10 09:54:50;;;;;;;8.83;2.43;;;12.60;82.90;;;12.49;40.41;101676.78;4806177;29;98633;-51
2022/04/10 09:57:19;;;;;;;5.93;2.50;;;12.40;83.20;;;12.71;41.03;101684.13;4794677;29;100312;-49
2022/04/10 09:59:47;;;;;;;5.23;2.40;;;12.50;86.70;;;12.63;37.79;101684.34;4790638;29;98654;-48
2022/04/10 10:02:23;;;;;;;5.83;2.10;;;12.60;82.70;;;12.51;39.22;101684.69;4775183;29;98181;-46
2022/04/10 10:04:56;;;;;;;4.20;2.20;;;12.40;83.40;;;12.43;37.89;101686.66;4771894;29;97623;-49
2022/04/10 10:07:22;;;;;;;4.73;1.90;;;12.30;81.90;;;12.51;38.46;101689.97;4787060;29;97370;-48
2022/04/10 10:09:49;;;;;;;5.17;2.30;;;12.40;83.70;;;12.61;38.66;101686.19;4793285;29;98143;-46
2022/04/10 10:12:16;;;;;;;5.50;2.30;;;12.50;84.20;;;12.45;38.32;101675.16;4789675;29;98002;-48